Terminal Aerodrome Forecast
Issued by NWS

Home | Current Version | Previous Version | Text Only | Print | Product List | Glossary Off
Versions: 1 2 3 4 5 6 7 8 9 10 11 12 13 14 15

000
FTUS43 KTOP 010500
TAFFOE
TAF
KFOE 010520Z 0106/0206 15003KT P6SM SKC
     FM011400 19008KT P6SM SCT150
     FM020000 15005KT P6SM BKN120=

USA.gov is the U.S. government's official web portal to all federal, state and local government web resources and services.